sensor_id;sensor_type;location;lat;lon;timestamp;P1;durP1;ratioP1;P2;durP2;ratioP2
41221;SDS011;26952;42.884;23.918;2023-04-28T00:01:25;3.55;;;2.33;;
41221;SDS011;26952;42.884;23.918;2023-04-28T00:03:51;2.92;;;2.70;;
41221;SDS011;26952;42.884;23.918;2023-04-28T00:06:17;4.97;;;3.22;;
41221;SDS011;26952;42.884;23.918;2023-04-28T00:08:42;6.07;;;3.03;;
41221;SDS011;26952;42.884;23.918;2023-04-28T00:11:08;3.22;;;2.97;;
41221;SDS011;26952;42.884;23.918;2023-04-28T00:13:34;3.33;;;2.30;;
41221;SDS011;26952;42.884;23.918;2023-04-28T00:15:59;3.28;;;2.70;;
41221;SDS011;26952;42.884;23.918;2023-04-28T00:18:25;3.60;;;2.70;;
41221;SDS011;26952;42.884;23.918;2023-04-28T00:20:51;3.25;;;2.95;;
41221;SDS011;26952;42.884;23.918;2023-04-28T00:23:16;4.57;;;2.58;;
41221;SDS011;26952;42.884;23.918;2023-04-28T00:25:41;5.75;;;2.78;;
41221;SDS011;26952;42.884;23.918;2023-04-28T00:28:07;3.00;;;2.80;;
41221;SDS011;26952;42.884;23.918;2023-04-28T00:30:32;3.22;;;2.92;;
41221;SDS011;26952;42.884;23.918;2023-04-28T00:32:58;3.10;;;2.90;;
41221;SDS011;26952;42.884;23.918;2023-04-28T00:35:23;3.72;;;3.42;;
41221;SDS011;26952;42.884;23.918;2023-04-28T00:37:48;4.72;;;3.17;;
41221;SDS011;26952;42.884;23.918;2023-04-28T00:40:14;9.73;;;3.20;;
41221;SDS011;26952;42.884;23.918;2023-04-28T00:42:39;3.97;;;2.97;;
41221;SDS011;26952;42.884;23.918;2023-04-28T00:45:05;6.22;;;3.13;;
41221;SDS011;26952;42.884;23.918;2023-04-28T00:47:31;3.38;;;3.08;;
41221;SDS011;26952;42.884;23.918;2023-04-28T00:49:58;3.50;;;3.25;;
41221;SDS011;26952;42.884;23.918;2023-04-28T00:52:25;3.78;;;3.38;;
41221;SDS011;26952;42.884;23.918;2023-04-28T00:54:52;5.97;;;5.20;;
41221;SDS011;26952;42.884;23.918;2023-04-28T00:57:17;4.55;;;3.03;;
41221;SDS011;26952;42.884;23.918;2023-04-28T00:59:43;3.38;;;2.92;;
41221;SDS011;26952;42.884;23.918;2023-04-28T01:02:08;4.35;;;3.83;;
41221;SDS011;26952;42.884;23.918;2023-04-28T01:04:41;4.90;;;2.92;;
41221;SDS011;26952;42.884;23.918;2023-04-28T01:07:07;3.72;;;3.30;;
41221;SDS011;26952;42.884;23.918;2023-04-28T01:09:33;3.47;;;3.00;;
41221;SDS011;26952;42.884;23.918;2023-04-28T01:11:58;4.05;;;2.55;;
41221;SDS011;26952;42.884;23.918;2023-04-28T01:14:24;3.97;;;2.72;;
41221;SDS011;26952;42.884;23.918;2023-04-28T01:16:49;4.60;;;2.70;;
41221;SDS011;26952;42.884;23.918;2023-04-28T01:19:24;3.90;;;2.55;;
41221;SDS011;26952;42.884;23.918;2023-04-28T01:21:50;5.07;;;2.92;;
41221;SDS011;26952;42.884;23.918;2023-04-28T01:24:15;4.10;;;2.40;;
41221;SDS011;26952;42.884;23.918;2023-04-28T01:26:41;5.90;;;2.45;;
41221;SDS011;26952;42.884;23.918;2023-04-28T01:29:07;4.78;;;2.47;;
41221;SDS011;26952;42.884;23.918;2023-04-28T01:31:32;2.60;;;2.40;;
41221;SDS011;26952;42.884;23.918;2023-04-28T01:33:58;3.78;;;2.40;;
41221;SDS011;26952;42.884;23.918;2023-04-28T01:36:23;3.78;;;2.88;;
41221;SDS011;26952;42.884;23.918;2023-04-28T01:38:50;2.30;;;2.05;;
41221;SDS011;26952;42.884;23.918;2023-04-28T01:41:15;3.33;;;2.60;;
41221;SDS011;26952;42.884;23.918;2023-04-28T01:43:41;3.83;;;2.50;;
41221;SDS011;26952;42.884;23.918;2023-04-28T01:46:07;2.70;;;2.50;;
41221;SDS011;26952;42.884;23.918;2023-04-28T01:48:33;7.45;;;2.80;;
41221;SDS011;26952;42.884;23.918;2023-04-28T01:50:59;3.42;;;3.05;;
41221;SDS011;26952;42.884;23.918;2023-04-28T01:53:24;3.17;;;2.97;;
41221;SDS011;26952;42.884;23.918;2023-04-28T01:55:50;3.95;;;3.33;;
41221;SDS011;26952;42.884;23.918;2023-04-28T01:58:15;5.72;;;4.05;;
41221;SDS011;26952;42.884;23.918;2023-04-28T02:00:41;6.25;;;4.05;;
41221;SDS011;26952;42.884;23.918;2023-04-28T02:03:06;4.80;;;4.40;;
41221;SDS011;26952;42.884;23.918;2023-04-28T02:05:31;4.90;;;4.55;;
41221;SDS011;26952;42.884;23.918;2023-04-28T02:07:57;5.07;;;4.45;;
41221;SDS011;26952;42.884;23.918;2023-04-28T02:10:22;4.88;;;4.57;;
41221;SDS011;26952;42.884;23.918;2023-04-28T02:12:47;5.15;;;4.80;;
41221;SDS011;26952;42.884;23.918;2023-04-28T02:15:13;5.07;;;4.78;;
41221;SDS011;26952;42.884;23.918;2023-04-28T02:17:38;5.53;;;5.13;;
41221;SDS011;26952;42.884;23.918;2023-04-28T02:20:04;5.88;;;5.38;;
41221;SDS011;26952;42.884;23.918;2023-04-28T02:22:30;5.55;;;5.13;;
41221;SDS011;26952;42.884;23.918;2023-04-28T02:24:56;5.85;;;5.30;;
41221;SDS011;26952;42.884;23.918;2023-04-28T02:27:21;5.57;;;5.18;;
41221;SDS011;26952;42.884;23.918;2023-04-28T02:29:46;5.78;;;5.30;;
41221;SDS011;26952;42.884;23.918;2023-04-28T02:32:12;6.15;;;5.70;;
41221;SDS011;26952;42.884;23.918;2023-04-28T02:34:37;5.90;;;5.40;;
41221;SDS011;26952;42.884;23.918;2023-04-28T02:37:03;5.93;;;5.60;;
41221;SDS011;26952;42.884;23.918;2023-04-28T02:39:28;5.45;;;5.15;;
41221;SDS011;26952;42.884;23.918;2023-04-28T02:41:55;5.75;;;5.35;;
41221;SDS011;26952;42.884;23.918;2023-04-28T02:44:20;5.30;;;4.90;;
41221;SDS011;26952;42.884;23.918;2023-04-28T02:46:46;6.70;;;5.57;;
41221;SDS011;26952;42.884;23.918;2023-04-28T02:49:11;5.57;;;5.07;;
41221;SDS011;26952;42.884;23.918;2023-04-28T02:51:37;8.05;;;5.53;;
41221;SDS011;26952;42.884;23.918;2023-04-28T02:54:03;5.97;;;5.47;;
41221;SDS011;26952;42.884;23.918;2023-04-28T02:56:28;5.53;;;5.07;;
41221;SDS011;26952;42.884;23.918;2023-04-28T02:58:54;6.10;;;5.25;;
41221;SDS011;26952;42.884;23.918;2023-04-28T03:01:20;5.70;;;5.20;;
41221;SDS011;26952;42.884;23.918;2023-04-28T03:03:46;7.05;;;6.40;;
41221;SDS011;26952;42.884;23.918;2023-04-28T03:06:11;6.03;;;5.60;;
41221;SDS011;26952;42.884;23.918;2023-04-28T03:08:37;8.52;;;5.82;;
41221;SDS011;26952;42.884;23.918;2023-04-28T03:11:02;7.15;;;6.55;;
41221;SDS011;26952;42.884;23.918;2023-04-28T03:13:27;7.53;;;6.38;;
41221;SDS011;26952;42.884;23.918;2023-04-28T03:15:54;7.47;;;6.78;;
41221;SDS011;26952;42.884;23.918;2023-04-28T03:18:20;7.13;;;6.57;;
41221;SDS011;26952;42.884;23.918;2023-04-28T03:20:46;7.60;;;6.97;;
41221;SDS011;26952;42.884;23.918;2023-04-28T03:23:12;6.63;;;6.20;;
41221;SDS011;26952;42.884;23.918;2023-04-28T03:25:37;7.55;;;6.95;;
41221;SDS011;26952;42.884;23.918;2023-04-28T03:28:03;7.50;;;6.90;;
41221;SDS011;26952;42.884;23.918;2023-04-28T03:30:29;9.05;;;7.25;;
41221;SDS011;26952;42.884;23.918;2023-04-28T03:32:54;7.82;;;7.13;;
41221;SDS011;26952;42.884;23.918;2023-04-28T03:35:20;9.00;;;6.88;;
41221;SDS011;26952;42.884;23.918;2023-04-28T03:37:45;6.75;;;6.38;;
41221;SDS011;26952;42.884;23.918;2023-04-28T03:40:11;6.95;;;6.55;;
41221;SDS011;26952;42.884;23.918;2023-04-28T03:42:36;8.55;;;7.95;;
41221;SDS011;26952;42.884;23.918;2023-04-28T03:45:02;7.88;;;7.30;;
41221;SDS011;26952;42.884;23.918;2023-04-28T03:47:28;8.57;;;7.80;;
41221;SDS011;26952;42.884;23.918;2023-04-28T03:49:54;8.68;;;8.07;;
41221;SDS011;26952;42.884;23.918;2023-04-28T03:52:19;7.78;;;7.28;;
41221;SDS011;26952;42.884;23.918;2023-04-28T03:54:45;8.88;;;8.18;;
41221;SDS011;26952;42.884;23.918;2023-04-28T03:57:10;5.88;;;5.13;;
41221;SDS011;26952;42.884;23.918;2023-04-28T03:59:36;4.47;;;3.80;;
41221;SDS011;26952;42.884;23.918;2023-04-28T04:02:02;2.90;;;2.70;;
41221;SDS011;26952;42.884;23.918;2023-04-28T04:04:28;5.45;;;3.45;;
41221;SDS011;26952;42.884;23.918;2023-04-28T04:06:53;5.97;;;5.57;;
41221;SDS011;26952;42.884;23.918;2023-04-28T04:09:19;10.30;;;9.63;;
41221;SDS011;26952;42.884;23.918;2023-04-28T04:11:44;14.23;;;13.18;;
41221;SDS011;26952;42.884;23.918;2023-04-28T04:14:10;13.32;;;12.45;;
41221;SDS011;26952;42.884;23.918;2023-04-28T04:16:35;11.27;;;10.48;;
41221;SDS011;26952;42.884;23.918;2023-04-28T04:19:01;10.18;;;9.45;;
41221;SDS011;26952;42.884;23.918;2023-04-28T04:21:26;5.75;;;5.28;;
41221;SDS011;26952;42.884;23.918;2023-04-28T04:23:52;5.70;;;5.22;;
41221;SDS011;26952;42.884;23.918;2023-04-28T04:26:17;8.73;;;7.90;;
41221;SDS011;26952;42.884;23.918;2023-04-28T04:28:43;16.58;;;15.77;;
41221;SDS011;26952;42.884;23.918;2023-04-28T04:31:09;22.13;;;20.85;;
41221;SDS011;26952;42.884;23.918;2023-04-28T04:33:34;23.77;;;22.52;;
41221;SDS011;26952;42.884;23.918;2023-04-28T04:36:01;22.45;;;21.10;;
41221;SDS011;26952;42.884;23.918;2023-04-28T04:38:27;21.90;;;20.60;;
41221;SDS011;26952;42.884;23.918;2023-04-28T04:40:52;15.93;;;15.10;;
41221;SDS011;26952;42.884;23.918;2023-04-28T04:43:17;12.25;;;11.30;;
41221;SDS011;26952;42.884;23.918;2023-04-28T04:45:43;10.45;;;9.85;;
41221;SDS011;26952;42.884;23.918;2023-04-28T04:48:08;9.75;;;9.15;;
41221;SDS011;26952;42.884;23.918;2023-04-28T04:50:33;6.63;;;6.20;;
41221;SDS011;26952;42.884;23.918;2023-04-28T04:52:59;6.32;;;5.82;;
41221;SDS011;26952;42.884;23.918;2023-04-28T04:55:24;10.70;;;6.30;;
41221;SDS011;26952;42.884;23.918;2023-04-28T04:57:50;14.57;;;8.90;;
41221;SDS011;26952;42.884;23.918;2023-04-28T05:00:15;7.03;;;4.50;;
41221;SDS011;26952;42.884;23.918;2023-04-28T05:02:41;4.97;;;3.08;;
41221;SDS011;26952;42.884;23.918;2023-04-28T05:05:07;4.85;;;3.08;;
41221;SDS011;26952;42.884;23.918;2023-04-28T05:07:33;6.20;;;3.05;;
41221;SDS011;26952;42.884;23.918;2023-04-28T05:09:58;5.55;;;4.72;;
41221;SDS011;26952;42.884;23.918;2023-04-28T05:12:24;4.22;;;3.13;;
41221;SDS011;26952;42.884;23.918;2023-04-28T05:14:50;3.90;;;3.30;;
41221;SDS011;26952;42.884;23.918;2023-04-28T05:17:15;5.60;;;3.70;;
41221;SDS011;26952;42.884;23.918;2023-04-28T05:19:40;5.45;;;4.00;;
41221;SDS011;26952;42.884;23.918;2023-04-28T05:22:06;9.38;;;7.50;;
41221;SDS011;26952;42.884;23.918;2023-04-28T05:24:31;9.57;;;7.38;;
41221;SDS011;26952;42.884;23.918;2023-04-28T05:26:57;6.75;;;4.65;;
41221;SDS011;26952;42.884;23.918;2023-04-28T05:29:23;9.82;;;7.15;;
41221;SDS011;26952;42.884;23.918;2023-04-28T05:31:48;6.13;;;5.60;;
41221;SDS011;26952;42.884;23.918;2023-04-28T05:34:14;6.32;;;5.72;;
41221;SDS011;26952;42.884;23.918;2023-04-28T05:36:39;7.18;;;6.07;;
41221;SDS011;26952;42.884;23.918;2023-04-28T05:39:05;6.30;;;5.90;;
41221;SDS011;26952;42.884;23.918;2023-04-28T05:41:31;24.85;;;17.55;;
41221;SDS011;26952;42.884;23.918;2023-04-28T05:43:56;12.23;;;10.30;;
41221;SDS011;26952;42.884;23.918;2023-04-28T05:46:22;29.48;;;19.17;;
41221;SDS011;26952;42.884;23.918;2023-04-28T05:48:47;27.08;;;17.80;;
41221;SDS011;26952;42.884;23.918;2023-04-28T05:51:13;8.73;;;7.85;;
41221;SDS011;26952;42.884;23.918;2023-04-28T05:53:38;6.47;;;5.90;;
41221;SDS011;26952;42.884;23.918;2023-04-28T05:56:04;9.50;;;8.18;;
41221;SDS011;26952;42.884;23.918;2023-04-28T05:58:29;6.45;;;6.05;;
41221;SDS011;26952;42.884;23.918;2023-04-28T06:00:55;6.43;;;5.88;;
41221;SDS011;26952;42.884;23.918;2023-04-28T06:03:21;6.47;;;6.07;;
41221;SDS011;26952;42.884;23.918;2023-04-28T06:05:46;6.57;;;5.97;;
41221;SDS011;26952;42.884;23.918;2023-04-28T06:08:11;7.03;;;5.93;;
41221;SDS011;26952;42.884;23.918;2023-04-28T06:10:37;6.32;;;5.82;;
41221;SDS011;26952;42.884;23.918;2023-04-28T06:13:02;6.07;;;5.57;;
41221;SDS011;26952;42.884;23.918;2023-04-28T06:15:30;5.38;;;4.97;;
41221;SDS011;26952;42.884;23.918;2023-04-28T06:17:56;7.20;;;5.53;;
41221;SDS011;26952;42.884;23.918;2023-04-28T06:20:23;6.05;;;5.75;;
41221;SDS011;26952;42.884;23.918;2023-04-28T06:22:48;7.10;;;6.50;;
41221;SDS011;26952;42.884;23.918;2023-04-28T06:25:14;7.60;;;7.10;;
41221;SDS011;26952;42.884;23.918;2023-04-28T06:27:39;8.95;;;8.45;;
41221;SDS011;26952;42.884;23.918;2023-04-28T06:30:05;9.85;;;9.27;;
41221;SDS011;26952;42.884;23.918;2023-04-28T06:32:31;10.35;;;9.68;;
41221;SDS011;26952;42.884;23.918;2023-04-28T06:34:56;12.68;;;11.98;;
41221;SDS011;26952;42.884;23.918;2023-04-28T06:37:22;16.23;;;15.23;;
41221;SDS011;26952;42.884;23.918;2023-04-28T06:39:47;11.05;;;10.32;;
41221;SDS011;26952;42.884;23.918;2023-04-28T06:42:12;5.78;;;5.38;;
41221;SDS011;26952;42.884;23.918;2023-04-28T06:44:42;4.57;;;4.17;;
41221;SDS011;26952;42.884;23.918;2023-04-28T06:47:07;4.70;;;4.28;;
41221;SDS011;26952;42.884;23.918;2023-04-28T06:49:33;7.20;;;4.70;;
41221;SDS011;26952;42.884;23.918;2023-04-28T06:51:58;7.82;;;5.22;;
41221;SDS011;26952;42.884;23.918;2023-04-28T06:54:23;5.63;;;5.13;;
41221;SDS011;26952;42.884;23.918;2023-04-28T06:56:49;8.45;;;7.93;;
41221;SDS011;26952;42.884;23.918;2023-04-28T06:59:14;9.48;;;8.68;;
41221;SDS011;26952;42.884;23.918;2023-04-28T07:01:40;7.55;;;7.10;;
41221;SDS011;26952;42.884;23.918;2023-04-28T07:04:05;8.38;;;7.78;;
41221;SDS011;26952;42.884;23.918;2023-04-28T07:06:31;8.95;;;8.35;;
41221;SDS011;26952;42.884;23.918;2023-04-28T07:08:56;8.20;;;7.60;;
41221;SDS011;26952;42.884;23.918;2023-04-28T07:11:21;12.32;;;11.57;;
41221;SDS011;26952;42.884;23.918;2023-04-28T07:13:47;14.40;;;13.63;;
41221;SDS011;26952;42.884;23.918;2023-04-28T07:16:15;15.45;;;14.45;;
41221;SDS011;26952;42.884;23.918;2023-04-28T07:18:41;28.17;;;26.63;;
41221;SDS011;26952;42.884;23.918;2023-04-28T07:21:07;19.33;;;18.33;;
41221;SDS011;26952;42.884;23.918;2023-04-28T07:23:32;13.52;;;12.77;;
41221;SDS011;26952;42.884;23.918;2023-04-28T07:25:58;19.33;;;18.25;;
41221;SDS011;26952;42.884;23.918;2023-04-28T07:28:23;15.32;;;14.35;;
41221;SDS011;26952;42.884;23.918;2023-04-28T07:30:48;7.43;;;6.97;;
41221;SDS011;26952;42.884;23.918;2023-04-28T07:33:14;8.35;;;7.82;;
41221;SDS011;26952;42.884;23.918;2023-04-28T07:35:39;6.38;;;5.88;;
41221;SDS011;26952;42.884;23.918;2023-04-28T07:38:05;6.50;;;5.90;;
41221;SDS011;26952;42.884;23.918;2023-04-28T07:40:30;5.90;;;5.47;;
41221;SDS011;26952;42.884;23.918;2023-04-28T07:42:56;6.82;;;6.18;;
41221;SDS011;26952;42.884;23.918;2023-04-28T07:45:21;7.50;;;6.88;;
41221;SDS011;26952;42.884;23.918;2023-04-28T07:47:47;7.78;;;5.53;;
41221;SDS011;26952;42.884;23.918;2023-04-28T07:50:12;8.90;;;8.30;;
41221;SDS011;26952;42.884;23.918;2023-04-28T07:52:38;7.03;;;6.43;;
41221;SDS011;26952;42.884;23.918;2023-04-28T07:55:03;6.95;;;6.50;;
41221;SDS011;26952;42.884;23.918;2023-04-28T07:57:29;7.43;;;6.75;;
41221;SDS011;26952;42.884;23.918;2023-04-28T07:59:54;7.25;;;6.80;;
41221;SDS011;26952;42.884;23.918;2023-04-28T08:02:20;7.93;;;7.22;;
41221;SDS011;26952;42.884;23.918;2023-04-28T08:04:45;7.72;;;6.75;;
41221;SDS011;26952;42.884;23.918;2023-04-28T08:07:11;8.35;;;7.65;;
41221;SDS011;26952;42.884;23.918;2023-04-28T08:09:37;6.88;;;6.32;;
41221;SDS011;26952;42.884;23.918;2023-04-28T08:12:04;7.82;;;7.30;;
41221;SDS011;26952;42.884;23.918;2023-04-28T08:14:29;6.65;;;6.18;;
41221;SDS011;26952;42.884;23.918;2023-04-28T08:16:55;8.57;;;7.97;;
41221;SDS011;26952;42.884;23.918;2023-04-28T08:19:21;7.10;;;6.60;;
41221;SDS011;26952;42.884;23.918;2023-04-28T08:21:47;8.50;;;7.65;;
41221;SDS011;26952;42.884;23.918;2023-04-28T08:24:12;8.90;;;8.35;;
41221;SDS011;26952;42.884;23.918;2023-04-28T08:26:38;9.57;;;8.88;;
41221;SDS011;26952;42.884;23.918;2023-04-28T08:29:04;12.27;;;11.60;;
41221;SDS011;26952;42.884;23.918;2023-04-28T08:31:30;7.80;;;7.45;;
41221;SDS011;26952;42.884;23.918;2023-04-28T08:33:55;10.45;;;9.65;;
41221;SDS011;26952;42.884;23.918;2023-04-28T08:36:21;8.65;;;8.15;;
41221;SDS011;26952;42.884;23.918;2023-04-28T08:38:47;14.45;;;11.68;;
41221;SDS011;26952;42.884;23.918;2023-04-28T08:41:16;17.65;;;16.65;;
41221;SDS011;26952;42.884;23.918;2023-04-28T08:43:42;18.05;;;17.13;;
41221;SDS011;26952;42.884;23.918;2023-04-28T08:46:08;11.02;;;10.27;;
41221;SDS011;26952;42.884;23.918;2023-04-28T08:48:38;10.52;;;9.93;;
41221;SDS011;26952;42.884;23.918;2023-04-28T08:51:14;7.10;;;6.63;;
41221;SDS011;26952;42.884;23.918;2023-04-28T08:53:42;14.68;;;13.88;;
41221;SDS011;26952;42.884;23.918;2023-04-28T08:56:10;19.67;;;18.27;;
41221;SDS011;26952;42.884;23.918;2023-04-28T08:58:40;20.58;;;19.38;;
41221;SDS011;26952;42.884;23.918;2023-04-28T09:01:06;17.80;;;16.70;;
41221;SDS011;26952;42.884;23.918;2023-04-28T09:03:32;9.45;;;8.68;;
41221;SDS011;26952;42.884;23.918;2023-04-28T09:05:58;10.57;;;8.45;;
41221;SDS011;26952;42.884;23.918;2023-04-28T09:08:23;11.90;;;11.00;;
41221;SDS011;26952;42.884;23.918;2023-04-28T09:11:04;12.68;;;11.90;;
41221;SDS011;26952;42.884;23.918;2023-04-28T09:13:33;14.18;;;13.43;;
41221;SDS011;26952;42.884;23.918;2023-04-28T09:15:59;25.58;;;24.10;;
41221;SDS011;26952;42.884;23.918;2023-04-28T09:18:26;23.73;;;22.45;;
41221;SDS011;26952;42.884;23.918;2023-04-28T09:21:01;24.15;;;23.05;;
41221;SDS011;26952;42.884;23.918;2023-04-28T09:23:29;20.13;;;19.23;;
41221;SDS011;26952;42.884;23.918;2023-04-28T09:28:28;18.15;;;16.40;;
41221;SDS011;26952;42.884;23.918;2023-04-28T09:30:54;16.42;;;15.48;;
41221;SDS011;26952;42.884;23.918;2023-04-28T09:33:19;19.27;;;18.33;;
41221;SDS011;26952;42.884;23.918;2023-04-28T09:35:46;16.45;;;15.63;;
41221;SDS011;26952;42.884;23.918;2023-04-28T09:38:12;16.88;;;15.52;;
41221;SDS011;26952;42.884;23.918;2023-04-28T09:40:48;18.55;;;17.67;;
41221;SDS011;26952;42.884;23.918;2023-04-28T09:45:50;16.65;;;15.85;;
41221;SDS011;26952;42.884;23.918;2023-04-28T09:48:16;15.07;;;14.38;;
41221;SDS011;26952;42.884;23.918;2023-04-28T09:50:50;13.98;;;13.27;;
41221;SDS011;26952;42.884;23.918;2023-04-28T09:53:18;15.43;;;14.50;;
41221;SDS011;26952;42.884;23.918;2023-04-28T09:55:47;18.77;;;17.83;;
41221;SDS011;26952;42.884;23.918;2023-04-28T09:58:14;6.00;;;5.70;;
41221;SDS011;26952;42.884;23.918;2023-04-28T10:00:41;10.50;;;9.75;;
41221;SDS011;26952;42.884;23.918;2023-04-28T10:03:06;8.70;;;8.15;;
41221;SDS011;26952;42.884;23.918;2023-04-28T10:05:34;13.00;;;12.20;;
41221;SDS011;26952;42.884;23.918;2023-04-28T10:08:00;11.68;;;10.93;;
41221;SDS011;26952;42.884;23.918;2023-04-28T10:10:27;12.05;;;11.05;;
41221;SDS011;26952;42.884;23.918;2023-04-28T10:12:53;13.50;;;12.63;;
41221;SDS011;26952;42.884;23.918;2023-04-28T10:15:20;20.85;;;19.75;;
41221;SDS011;26952;42.884;23.918;2023-04-28T10:17:47;18.40;;;17.35;;
41221;SDS011;26952;42.884;23.918;2023-04-28T10:20:15;20.73;;;19.65;;
41221;SDS011;26952;42.884;23.918;2023-04-28T10:25:34;31.75;;;30.00;;
41221;SDS011;26952;42.884;23.918;2023-04-28T10:28:03;26.98;;;25.52;;
41221;SDS011;26952;42.884;23.918;2023-04-28T10:30:31;24.67;;;22.85;;
41221;SDS011;26952;42.884;23.918;2023-04-28T10:38:05;19.52;;;18.42;;
41221;SDS011;26952;42.884;23.918;2023-04-28T10:40:34;22.13;;;20.83;;
41221;SDS011;26952;42.884;23.918;2023-04-28T10:43:00;20.95;;;19.85;;
41221;SDS011;26952;42.884;23.918;2023-04-28T10:56:12;11.65;;;10.93;;
41221;SDS011;26952;42.884;23.918;2023-04-28T11:11:39;23.00;;;21.70;;
41221;SDS011;26952;42.884;23.918;2023-04-28T11:16:57;24.83;;;23.40;;
41221;SDS011;26952;42.884;23.918;2023-04-28T11:22:00;29.75;;;28.02;;
41221;SDS011;26952;42.884;23.918;2023-04-28T11:24:27;23.85;;;22.52;;
41221;SDS011;26952;42.884;23.918;2023-04-28T11:26:54;22.30;;;20.95;;
41221;SDS011;26952;42.884;23.918;2023-04-28T11:29:30;21.77;;;20.52;;
41221;SDS011;26952;42.884;23.918;2023-04-28T11:32:03;18.15;;;16.95;;
41221;SDS011;26952;42.884;23.918;2023-04-28T11:34:30;19.48;;;18.23;;
41221;SDS011;26952;42.884;23.918;2023-04-28T11:36:55;17.73;;;16.77;;
41221;SDS011;26952;42.884;23.918;2023-04-28T11:39:28;13.93;;;13.02;;
41221;SDS011;26952;42.884;23.918;2023-04-28T11:41:55;17.05;;;16.15;;
41221;SDS011;26952;42.884;23.918;2023-04-28T11:44:22;20.00;;;18.80;;
41221;SDS011;26952;42.884;23.918;2023-04-28T11:46:49;24.52;;;23.13;;
41221;SDS011;26952;42.884;23.918;2023-04-28T11:49:20;23.73;;;22.40;;
41221;SDS011;26952;42.884;23.918;2023-04-28T11:51:48;25.23;;;23.73;;
41221;SDS011;26952;42.884;23.918;2023-04-28T11:54:18;23.38;;;22.08;;
41221;SDS011;26952;42.884;23.918;2023-04-28T11:56:51;27.80;;;26.23;;
41221;SDS011;26952;42.884;23.918;2023-04-28T11:59:21;29.00;;;27.20;;
41221;SDS011;26952;42.884;23.918;2023-04-28T12:02:03;30.75;;;29.05;;
41221;SDS011;26952;42.884;23.918;2023-04-28T12:07:07;23.45;;;21.95;;
41221;SDS011;26952;42.884;23.918;2023-04-28T12:09:38;19.48;;;18.30;;
41221;SDS011;26952;42.884;23.918;2023-04-28T12:12:08;20.58;;;19.58;;
41221;SDS011;26952;42.884;23.918;2023-04-28T12:17:38;19.48;;;18.30;;
41221;SDS011;26952;42.884;23.918;2023-04-28T12:22:45;25.75;;;24.42;;
41221;SDS011;26952;42.884;23.918;2023-04-28T12:25:14;26.38;;;24.60;;
41221;SDS011;26952;42.884;23.918;2023-04-28T12:27:57;28.50;;;26.95;;
41221;SDS011;26952;42.884;23.918;2023-04-28T12:30:27;21.13;;;19.50;;
41221;SDS011;26952;42.884;23.918;2023-04-28T12:32:53;42.47;;;40.20;;
41221;SDS011;26952;42.884;23.918;2023-04-28T12:35:26;21.45;;;20.10;;
41221;SDS011;26952;42.884;23.918;2023-04-28T12:37:52;14.45;;;13.63;;
41221;SDS011;26952;42.884;23.918;2023-04-28T12:40:19;18.00;;;16.65;;
41221;SDS011;26952;42.884;23.918;2023-04-28T12:42:45;18.73;;;17.52;;
41221;SDS011;26952;42.884;23.918;2023-04-28T12:45:10;21.80;;;20.55;;
41221;SDS011;26952;42.884;23.918;2023-04-28T12:47:36;19.75;;;18.65;;
41221;SDS011;26952;42.884;23.918;2023-04-28T12:50:02;23.85;;;22.52;;
41221;SDS011;26952;42.884;23.918;2023-04-28T12:52:28;22.60;;;21.27;;
41221;SDS011;26952;42.884;23.918;2023-04-28T12:54:53;21.80;;;20.52;;
41221;SDS011;26952;42.884;23.918;2023-04-28T12:57:19;19.20;;;18.08;;
41221;SDS011;26952;42.884;23.918;2023-04-28T12:59:47;20.13;;;19.02;;
41221;SDS011;26952;42.884;23.918;2023-04-28T13:02:13;22.25;;;21.13;;
41221;SDS011;26952;42.884;23.918;2023-04-28T13:04:39;24.17;;;22.77;;
41221;SDS011;26952;42.884;23.918;2023-04-28T13:07:06;24.02;;;22.77;;
41221;SDS011;26952;42.884;23.918;2023-04-28T13:09:32;23.25;;;21.88;;
41221;SDS011;26952;42.884;23.918;2023-04-28T13:11:58;21.25;;;20.08;;
41221;SDS011;26952;42.884;23.918;2023-04-28T13:14:24;21.90;;;20.70;;
41221;SDS011;26952;42.884;23.918;2023-04-28T13:16:51;22.85;;;21.15;;
41221;SDS011;26952;42.884;23.918;2023-04-28T13:19:17;21.27;;;19.67;;
41221;SDS011;26952;42.884;23.918;2023-04-28T13:21:43;18.85;;;17.80;;
41221;SDS011;26952;42.884;23.918;2023-04-28T13:24:11;26.90;;;25.38;;
41221;SDS011;26952;42.884;23.918;2023-04-28T13:26:37;15.05;;;13.75;;
41221;SDS011;26952;42.884;23.918;2023-04-28T13:29:03;15.15;;;14.25;;
41221;SDS011;26952;42.884;23.918;2023-04-28T13:31:29;18.27;;;17.17;;
41221;SDS011;26952;42.884;23.918;2023-04-28T13:33:55;15.57;;;14.68;;
41221;SDS011;26952;42.884;23.918;2023-04-28T13:36:22;14.80;;;14.02;;
41221;SDS011;26952;42.884;23.918;2023-04-28T13:38:48;16.35;;;15.40;;
41221;SDS011;26952;42.884;23.918;2023-04-28T13:41:17;20.63;;;19.42;;
41221;SDS011;26952;42.884;23.918;2023-04-28T13:43:42;21.58;;;20.30;;
41221;SDS011;26952;42.884;23.918;2023-04-28T13:46:08;22.95;;;21.60;;
41221;SDS011;26952;42.884;23.918;2023-04-28T13:48:34;21.23;;;19.92;;
41221;SDS011;26952;42.884;23.918;2023-04-28T13:51:00;19.40;;;18.20;;
41221;SDS011;26952;42.884;23.918;2023-04-28T13:53:26;19.00;;;17.85;;
41221;SDS011;26952;42.884;23.918;2023-04-28T13:55:52;18.95;;;17.60;;
41221;SDS011;26952;42.884;23.918;2023-04-28T13:58:21;25.30;;;23.60;;
41221;SDS011;26952;42.884;23.918;2023-04-28T14:00:47;18.33;;;17.13;;
41221;SDS011;26952;42.884;23.918;2023-04-28T14:03:12;18.48;;;17.38;;
41221;SDS011;26952;42.884;23.918;2023-04-28T14:05:38;16.70;;;15.80;;
41221;SDS011;26952;42.884;23.918;2023-04-28T14:08:03;21.23;;;19.90;;
41221;SDS011;26952;42.884;23.918;2023-04-28T14:10:30;20.58;;;19.45;;
41221;SDS011;26952;42.884;23.918;2023-04-28T14:12:56;22.70;;;21.50;;
41221;SDS011;26952;42.884;23.918;2023-04-28T14:15:22;20.08;;;18.90;;
41221;SDS011;26952;42.884;23.918;2023-04-28T14:17:47;18.75;;;17.58;;
41221;SDS011;26952;42.884;23.918;2023-04-28T14:20:13;33.88;;;32.17;;
41221;SDS011;26952;42.884;23.918;2023-04-28T14:22:38;19.02;;;18.02;;
41221;SDS011;26952;42.884;23.918;2023-04-28T14:25:04;15.80;;;14.80;;
41221;SDS011;26952;42.884;23.918;2023-04-28T14:27:30;19.98;;;18.75;;
41221;SDS011;26952;42.884;23.918;2023-04-28T14:29:56;20.88;;;19.77;;
41221;SDS011;26952;42.884;23.918;2023-04-28T14:32:22;17.77;;;16.70;;
41221;SDS011;26952;42.884;23.918;2023-04-28T14:34:47;16.33;;;15.32;;
41221;SDS011;26952;42.884;23.918;2023-04-28T14:37:14;17.20;;;16.10;;
41221;SDS011;26952;42.884;23.918;2023-04-28T14:39:40;15.50;;;14.38;;
41221;SDS011;26952;42.884;23.918;2023-04-28T14:42:06;17.50;;;16.15;;
41221;SDS011;26952;42.884;23.918;2023-04-28T14:44:32;19.20;;;17.75;;
41221;SDS011;26952;42.884;23.918;2023-04-28T14:46:58;15.10;;;14.15;;
41221;SDS011;26952;42.884;23.918;2023-04-28T14:49:24;15.40;;;14.30;;
41221;SDS011;26952;42.884;23.918;2023-04-28T14:51:51;15.90;;;14.88;;
41221;SDS011;26952;42.884;23.918;2023-04-28T14:54:17;16.30;;;14.98;;
41221;SDS011;26952;42.884;23.918;2023-04-28T14:56:43;15.68;;;14.75;;
41221;SDS011;26952;42.884;23.918;2023-04-28T14:59:09;20.17;;;18.50;;
41221;SDS011;26952;42.884;23.918;2023-04-28T15:01:35;19.20;;;17.92;;
41221;SDS011;26952;42.884;23.918;2023-04-28T15:04:01;13.15;;;11.77;;
41221;SDS011;26952;42.884;23.918;2023-04-28T15:06:27;14.23;;;13.15;;
41221;SDS011;26952;42.884;23.918;2023-04-28T15:08:52;12.88;;;11.90;;